Time;durP1;ratioP1;P1;durP2;ratioP2;P2;SDS_P1;SDS_P2;PMS_P1;PMS_P2;Temp;Humidity;BMP_temperature;BMP_pressure;BME280_temperature;BME280_humidity;BME280_pressure;Samples;Min_cycle;Max_cycle;Signal;HPM_P1;HPM_P2
2021/10/10 00:01:43;;;;;;;12.43;11.27;;;9.30;55.40;;;;;;5056800;28;20211;-82
2021/10/10 00:04:09;;;;;;;13.07;11.80;;;9.30;55.10;;;;;;5056432;28;20175;-82
2021/10/10 00:06:35;;;;;;;12.63;11.40;;;9.20;55.80;;;;;;5056127;28;20180;-82
2021/10/10 00:09:01;;;;;;;14.73;11.80;;;9.10;56.20;;;;;;5055726;28;20425;-82
2021/10/10 00:11:27;;;;;;;14.83;12.20;;;9.20;55.80;;;;;;5056164;28;20419;-82
2021/10/10 00:13:52;;;;;;;14.80;13.27;;;9.20;55.90;;;;;;5056675;28;20422;-82
2021/10/10 00:16:18;;;;;;;12.83;11.57;;;9.10;56.30;;;;;;5055430;28;20203;-82
2021/10/10 00:18:44;;;;;;;12.13;10.90;;;9.10;56.40;;;;;;5055631;28;20176;-83
2021/10/10 00:21:09;;;;;;;14.30;11.70;;;9.10;56.20;;;;;;5055602;28;20234;-82
2021/10/10 00:23:35;;;;;;;13.97;12.60;;;9.10;56.50;;;;;;5055425;28;20548;-83
2021/10/10 00:26:02;;;;;;;14.47;13.07;;;9.10;56.90;;;;;;5055872;28;20692;-82
2021/10/10 00:28:28;;;;;;;13.70;12.40;;;9.10;56.70;;;;;;5055590;28;20602;-82
2021/10/10 00:30:56;;;;;;;13.40;12.20;;;9.00;57.00;;;;;;5055730;28;20469;-82
2021/10/10 00:33:22;;;;;;;14.10;12.70;;;9.00;57.00;;;;;;5055709;28;20179;-82
2021/10/10 00:35:47;;;;;;;13.27;11.90;;;9.00;57.30;;;;;;5055887;28;20973;-83
2021/10/10 00:38:13;;;;;;;13.67;12.27;;;9.00;57.30;;;;;;5055265;28;20168;-83
2021/10/10 00:40:39;;;;;;;13.63;12.33;;;9.00;57.50;;;;;;5055064;28;20211;-83
2021/10/10 00:43:06;;;;;;;13.50;12.17;;;8.90;57.10;;;;;;5055881;28;20174;-83
2021/10/10 00:45:33;;;;;;;15.63;12.50;;;8.90;57.60;;;;;;5055342;28;20430;-82
2021/10/10 00:47:59;;;;;;;14.63;11.73;;;8.90;57.90;;;;;;5055688;28;20414;-82
2021/10/10 00:50:25;;;;;;;13.40;12.17;;;8.90;57.80;;;;;;5055726;28;20521;-82
2021/10/10 00:52:53;;;;;;;14.60;12.60;;;8.80;57.20;;;;;;5055733;28;20411;-82
2021/10/10 00:55:21;;;;;;;13.33;11.93;;;8.80;58.00;;;;;;5055322;28;20974;-82
2021/10/10 00:57:49;;;;;;;15.00;13.60;;;8.80;57.80;;;;;;5055390;28;20464;-83
2021/10/10 01:00:16;;;;;;;14.40;13.00;;;8.70;58.10;;;;;;5055074;28;20476;-82
2021/10/10 01:02:43;;;;;;;14.57;12.90;;;8.70;58.60;;;;;;5054807;28;20422;-82
2021/10/10 01:05:10;;;;;;;14.43;12.83;;;8.70;58.90;;;;;;5055181;28;20509;-83
2021/10/10 01:07:35;;;;;;;15.30;13.90;;;8.60;58.40;;;;;;5053847;28;20464;-81
2021/10/10 01:10:02;;;;;;;13.97;12.67;;;8.70;58.90;;;;;;5054715;28;20884;-83
2021/10/10 01:12:28;;;;;;;16.53;12.23;;;8.60;58.40;;;;;;5055108;28;20176;-84
2021/10/10 01:14:55;;;;;;;15.60;12.43;;;8.60;59.10;;;;;;5054527;28;20425;-82
2021/10/10 01:17:23;;;;;;;13.63;12.23;;;8.60;58.40;;;;;;5054678;28;20191;-83
2021/10/10 01:19:50;;;;;;;14.87;13.37;;;8.60;58.60;;;;;;5055329;28;20771;-82
2021/10/10 01:22:16;;;;;;;14.27;12.50;;;8.60;58.70;;;;;;5054967;28;20410;-83
2021/10/10 01:24:41;;;;;;;13.70;12.20;;;8.60;59.30;;;;;;5055052;28;20422;-83
2021/10/10 01:27:07;;;;;;;13.57;11.90;;;8.50;58.90;;;;;;5055138;28;20172;-83
2021/10/10 01:29:33;;;;;;;16.27;12.97;;;8.50;59.20;;;;;;5054973;28;20693;-82
2021/10/10 01:31:58;;;;;;;15.10;11.77;;;8.50;59.30;;;;;;5054675;28;20394;-81
2021/10/10 01:34:24;;;;;;;12.30;11.10;;;8.60;59.00;;;;;;5054708;28;20179;-81
2021/10/10 01:36:50;;;;;;;14.67;13.27;;;8.50;58.90;;;;;;5055571;28;20208;-82
2021/10/10 01:39:15;;;;;;;12.50;11.20;;;8.60;59.10;;;;;;5055945;28;20663;-82
2021/10/10 01:41:41;;;;;;;13.80;12.43;;;8.50;58.50;;;;;;5055388;28;20182;-82
2021/10/10 01:44:14;;;;;;;14.70;13.20;;;8.50;59.10;;;;;;5054679;28;20218;-82
2021/10/10 01:46:40;;;;;;;12.13;10.93;;;8.40;59.00;;;;;;5054975;28;20210;-82
2021/10/10 01:49:06;;;;;;;13.40;12.10;;;8.40;59.80;;;;;;5054763;28;20468;-82
2021/10/10 01:51:32;;;;;;;16.80;12.80;;;8.40;59.90;;;;;;5054712;28;20423;-82
2021/10/10 01:54:00;;;;;;;14.20;12.63;;;8.40;59.50;;;;;;5054466;28;20172;-83
2021/10/10 01:56:26;;;;;;;16.13;14.53;;;8.40;59.40;;;;;;5054168;28;20199;-83
2021/10/10 01:58:52;;;;;;;15.27;13.90;;;8.30;59.80;;;;;;5054145;28;20828;-83
2021/10/10 02:01:18;;;;;;;13.53;12.10;;;8.30;60.30;;;;;;5054185;28;20450;-83
2021/10/10 02:03:43;;;;;;;15.40;13.90;;;8.30;60.40;;;;;;5037154;28;20208;-82
2021/10/10 02:06:09;;;;;;;15.30;13.70;;;8.30;59.80;;;;;;5054485;28;20211;-82
2021/10/10 02:08:35;;;;;;;14.80;13.20;;;8.20;60.40;;;;;;5054804;28;20176;-83
2021/10/10 02:11:00;;;;;;;15.13;11.97;;;8.20;61.10;;;;;;5055170;28;20266;-82
2021/10/10 02:13:26;;;;;;;16.13;11.90;;;8.20;60.70;;;;;;5054583;28;20176;-82
2021/10/10 02:15:52;;;;;;;15.43;13.83;;;8.20;60.40;;;;;;5054636;28;20202;-82
2021/10/10 02:18:17;;;;;;;16.47;13.70;;;8.10;61.00;;;;;;5053538;28;20209;-83
2021/10/10 02:20:43;;;;;;;16.10;13.27;;;8.10;60.30;;;;;;5054334;28;20239;-82
2021/10/10 02:23:09;;;;;;;14.50;12.93;;;8.10;61.10;;;;;;5054040;28;20689;-81
2021/10/10 02:25:35;;;;;;;17.10;14.57;;;8.00;61.30;;;;;;5053463;28;20180;-81
2021/10/10 02:28:00;;;;;;;15.50;14.10;;;8.00;61.30;;;;;;5053766;28;20179;-83
2021/10/10 02:30:26;;;;;;;15.47;14.00;;;8.10;61.70;;;;;;5053967;28;20592;-82
2021/10/10 02:32:52;;;;;;;14.53;13.03;;;8.00;61.50;;;;;;5053472;28;20677;-83
2021/10/10 02:35:18;;;;;;;16.33;13.37;;;8.00;60.20;;;;;;5053188;28;20294;-82
2021/10/10 02:37:44;;;;;;;14.73;13.20;;;8.00;60.20;;;;;;5053825;28;20456;-83
2021/10/10 02:40:10;;;;;;;14.47;13.10;;;8.00;61.60;;;;;;5053498;28;20415;-82
2021/10/10 02:42:36;;;;;;;14.17;12.63;;;7.90;61.40;;;;;;5053431;28;20215;-82
2021/10/10 02:45:03;;;;;;;14.43;13.13;;;8.00;62.00;;;;;;5053599;28;20421;-82
2021/10/10 02:47:28;;;;;;;15.80;14.10;;;8.00;61.70;;;;;;5053040;28;20175;-82
2021/10/10 02:49:54;;;;;;;20.47;13.63;;;7.90;62.10;;;;;;5052822;28;20782;-82
2021/10/10 02:52:21;;;;;;;14.80;13.30;;;7.90;62.00;;;;;;5052957;28;20181;-83
2021/10/10 02:54:47;;;;;;;17.10;13.53;;;7.90;61.20;;;;;;5053044;28;20179;-83
2021/10/10 02:57:13;;;;;;;14.47;12.97;;;7.80;61.00;;;;;;5052628;28;20425;-83
2021/10/10 02:59:38;;;;;;;13.90;12.40;;;7.70;61.50;;;;;;5052796;28;20182;-82
2021/10/10 03:02:04;;;;;;;16.57;13.00;;;7.70;61.20;;;;;;5053001;28;20175;-82
2021/10/10 03:04:30;;;;;;;12.93;11.73;;;7.70;61.60;;;;;;5052391;28;20411;-81
2021/10/10 03:06:56;;;;;;;14.13;12.57;;;7.60;61.10;;;;;;5052348;28;20179;-82
2021/10/10 03:09:21;;;;;;;14.07;12.70;;;7.50;62.40;;;;;;5052561;28;20186;-82
2021/10/10 03:11:47;;;;;;;16.47;13.63;;;7.60;62.40;;;;;;5052148;28;20214;-82
2021/10/10 03:14:13;;;;;;;14.60;13.27;;;7.50;61.80;;;;;;5051793;28;20183;-82
2021/10/10 03:16:38;;;;;;;15.47;13.20;;;7.60;62.20;;;;;;5051935;28;20238;-82
2021/10/10 03:19:04;;;;;;;16.60;14.90;;;7.50;62.10;;;;;;5051779;28;20175;-83
2021/10/10 03:21:30;;;;;;;14.77;13.40;;;7.60;61.90;;;;;;5052804;28;20172;-82
2021/10/10 03:23:55;;;;;;;14.83;13.33;;;7.50;62.40;;;;;;5052157;28;20229;-82
2021/10/10 03:26:21;;;;;;;17.23;15.00;;;7.50;62.20;;;;;;5051943;28;20187;-83
2021/10/10 03:28:47;;;;;;;16.43;15.00;;;7.50;63.10;;;;;;5051852;28;20653;-82
2021/10/10 03:31:13;;;;;;;16.13;14.63;;;7.50;62.40;;;;;;5051440;28;20277;-82
2021/10/10 03:33:38;;;;;;;16.20;14.70;;;7.50;62.10;;;;;;5051811;28;20458;-82
2021/10/10 03:36:06;;;;;;;15.67;14.17;;;7.40;63.10;;;;;;5051778;28;20210;-81
2021/10/10 03:38:32;;;;;;;16.93;14.50;;;7.40;62.90;;;;;;5052006;28;20529;-83
2021/10/10 03:40:58;;;;;;;16.33;14.23;;;7.50;62.50;;;;;;5051871;28;20791;-82
2021/10/10 03:43:24;;;;;;;17.43;15.67;;;7.50;61.90;;;;;;5052055;28;20509;-82
2021/10/10 03:45:49;;;;;;;15.73;13.67;;;7.40;62.50;;;;;;5051688;28;20888;-82
2021/10/10 03:48:15;;;;;;;15.77;14.20;;;7.40;62.80;;;;;;5051792;28;20425;-84
2021/10/10 03:50:40;;;;;;;17.10;15.30;;;7.40;62.10;;;;;;5051723;28;20186;-82
2021/10/10 03:53:06;;;;;;;16.67;15.07;;;7.30;62.20;;;;;;5051902;28;20171;-82
2021/10/10 03:55:36;;;;;;;14.90;13.40;;;7.40;62.40;;;;;;5051419;28;20205;-82
2021/10/10 03:58:03;;;;;;;15.57;14.10;;;7.40;61.50;;;;;;5051854;28;20205;-82
2021/10/10 04:00:30;;;;;;;15.57;14.00;;;7.30;62.00;;;;;;5052014;28;20418;-82
2021/10/10 04:02:58;;;;;;;16.93;15.23;;;7.30;62.40;;;;;;5052006;28;20414;-82
2021/10/10 04:05:37;;;;;;;16.47;14.80;;;7.20;62.20;;;;;;5051701;28;20449;-82
2021/10/10 04:08:03;;;;;;;16.23;14.63;;;7.20;63.10;;;;;;5051392;28;20428;-81
2021/10/10 04:10:29;;;;;;;17.43;15.73;;;7.20;63.00;;;;;;5051057;28;20433;-82
2021/10/10 04:12:55;;;;;;;20.60;15.90;;;7.20;63.00;;;;;;5051362;28;20414;-83
2021/10/10 04:15:21;;;;;;;17.43;15.70;;;7.10;62.90;;;;;;5051857;28;20211;-82
2021/10/10 04:17:47;;;;;;;18.20;15.93;;;7.20;63.40;;;;;;5051903;28;20456;-82
2021/10/10 04:20:15;;;;;;;17.93;16.23;;;7.10;63.70;;;;;;5053498;28;20176;-82
2021/10/10 04:22:42;;;;;;;17.13;15.43;;;7.20;64.00;;;;;;5051772;28;20414;-82
2021/10/10 04:25:09;;;;;;;17.63;15.30;;;7.20;63.20;;;;;;5051953;28;20472;-82
2021/10/10 04:27:35;;;;;;;17.10;15.20;;;7.20;63.60;;;;;;5051319;28;20486;-82
2021/10/10 04:30:03;;;;;;;16.53;15.03;;;7.20;64.10;;;;;;5051522;28;20819;-82
2021/10/10 04:32:29;;;;;;;17.97;16.27;;;7.10;63.30;;;;;;5051846;28;20418;-82
2021/10/10 04:34:54;;;;;;;16.60;15.00;;;7.10;62.90;;;;;;5050755;28;20824;-82
2021/10/10 04:37:20;;;;;;;17.50;15.37;;;7.10;63.30;;;;;;5051127;28;20186;-83
2021/10/10 04:39:46;;;;;;;19.40;16.33;;;7.10;63.40;;;;;;5051382;28;20263;-83
2021/10/10 04:42:11;;;;;;;16.50;14.77;;;7.10;63.40;;;;;;5053483;28;20407;-82
2021/10/10 04:44:37;;;;;;;15.23;13.63;;;7.10;63.00;;;;;;5055076;28;20215;-82
2021/10/10 04:47:06;;;;;;;18.60;14.63;;;7.00;63.70;;;;;;5055086;28;20205;-82
2021/10/10 04:49:33;;;;;;;16.30;14.60;;;7.00;63.60;;;;;;5054634;28;20592;-82
2021/10/10 04:52:01;;;;;;;17.47;15.57;;;7.10;64.30;;;;;;5054638;28;20492;-82
2021/10/10 04:54:27;;;;;;;16.57;14.97;;;7.10;63.10;;;;;;5054644;28;20426;-82
2021/10/10 04:56:52;;;;;;;17.30;15.77;;;7.10;63.60;;;;;;5053870;28;20891;-82
2021/10/10 04:59:18;;;;;;;16.40;14.70;;;7.10;63.20;;;;;;5053946;28;20262;-81
2021/10/10 05:01:44;;;;;;;18.33;16.30;;;7.10;63.50;;;;;;5054217;28;20182;-82
2021/10/10 05:04:09;;;;;;;16.97;15.30;;;7.00;63.60;;;;;;5054128;28;20172;-82
2021/10/10 05:06:35;;;;;;;19.07;17.17;;;7.00;63.60;;;;;;5054075;28;20421;-82
2021/10/10 05:09:01;;;;;;;17.33;15.63;;;7.00;63.50;;;;;;5054053;28;20184;-82
2021/10/10 05:11:26;;;;;;;22.90;15.50;;;6.90;63.80;;;;;;5053802;28;20179;-82
2021/10/10 05:13:52;;;;;;;17.93;16.17;;;7.00;64.00;;;;;;5053843;28;20179;-82
2021/10/10 05:16:18;;;;;;;16.80;14.97;;;7.00;64.50;;;;;;5054071;28;20233;-82
2021/10/10 05:18:43;;;;;;;15.93;14.37;;;6.90;64.10;;;;;;5054033;28;20218;-82
2021/10/10 05:21:09;;;;;;;16.27;14.77;;;6.90;64.40;;;;;;5054121;28;20551;-81
2021/10/10 05:23:34;;;;;;;16.60;14.37;;;6.80;64.20;;;;;;5054002;28;20215;-81
2021/10/10 05:26:01;;;;;;;16.80;15.00;;;6.90;65.10;;;;;;5053466;28;20249;-81
2021/10/10 05:28:26;;;;;;;18.10;14.30;;;6.90;64.70;;;;;;5053904;28;20176;-82
2021/10/10 05:30:52;;;;;;;16.90;15.20;;;6.90;64.50;;;;;;5053381;28;20449;-82
2021/10/10 05:33:18;;;;;;;18.10;16.20;;;6.90;64.90;;;;;;5053790;28;20182;-82
2021/10/10 05:35:44;;;;;;;16.27;14.77;;;6.90;64.20;;;;;;5054625;28;20258;-82
2021/10/10 05:38:10;;;;;;;16.23;14.73;;;6.90;63.90;;;;;;5053285;28;20536;-82
2021/10/10 05:40:36;;;;;;;17.77;15.97;;;6.90;64.30;;;;;;5053084;28;20595;-82
2021/10/10 05:43:01;;;;;;;15.37;13.90;;;6.90;63.70;;;;;;5053494;28;20180;-82
2021/10/10 05:45:27;;;;;;;15.87;14.37;;;6.90;63.50;;;;;;5055724;28;20504;-82
2021/10/10 05:47:53;;;;;;;17.37;14.83;;;6.80;63.40;;;;;;5053402;28;20235;-81
2021/10/10 05:50:18;;;;;;;15.80;14.20;;;6.90;63.60;;;;;;5053288;28;20179;-82
2021/10/10 05:52:44;;;;;;;16.67;15.07;;;6.90;63.40;;;;;;5053109;28;20172;-82
2021/10/10 05:55:11;;;;;;;17.10;15.30;;;6.90;63.60;;;;;;5053558;28;20185;-81
2021/10/10 05:57:47;;;;;;;16.53;14.97;;;6.90;63.60;;;;;;5052927;28;20758;-82
2021/10/10 06:00:17;;;;;;;16.10;14.70;;;6.80;64.20;;;;;;5053787;28;20425;-82
2021/10/10 06:02:45;;;;;;;15.87;14.37;;;6.80;63.50;;;;;;5053277;28;20413;-82
2021/10/10 06:05:10;;;;;;;16.97;15.27;;;6.80;63.90;;;;;;5053741;28;20419;-81
2021/10/10 06:07:37;;;;;;;16.73;15.00;;;6.90;63.90;;;;;;5053327;28;20511;-82
2021/10/10 06:10:06;;;;;;;15.60;14.17;;;6.90;63.70;;;;;;5053594;28;20423;-82
2021/10/10 06:12:33;;;;;;;15.37;13.93;;;6.80;63.90;;;;;;5053380;28;20415;-82
2021/10/10 06:14:59;;;;;;;18.27;15.77;;;6.80;63.90;;;;;;5053378;28;20421;-82
2021/10/10 06:17:25;;;;;;;18.30;16.50;;;6.80;64.30;;;;;;5053448;28;20419;-82
2021/10/10 06:19:51;;;;;;;15.97;14.37;;;6.90;64.40;;;;;;5053348;28;20410;-82
2021/10/10 06:22:17;;;;;;;16.67;13.37;;;6.80;64.20;;;;;;5053499;28;20457;-82
2021/10/10 06:24:43;;;;;;;16.50;14.50;;;6.80;64.40;;;;;;5053465;28;20861;-82
2021/10/10 06:27:08;;;;;;;14.73;13.43;;;6.80;64.10;;;;;;5053425;28;20595;-82
2021/10/10 06:29:34;;;;;;;16.23;14.70;;;6.90;64.30;;;;;;5053370;28;20176;-82
2021/10/10 06:32:00;;;;;;;14.93;13.60;;;6.80;63.60;;;;;;5053347;28;20199;-85
2021/10/10 06:34:25;;;;;;;15.30;13.90;;;6.80;64.60;;;;;;5053565;28;20590;-86
2021/10/10 06:36:52;;;;;;;15.40;13.80;;;6.80;64.00;;;;;;5053228;28;20212;-86
2021/10/10 06:39:17;;;;;;;16.27;14.67;;;6.90;63.30;;;;;;5052911;28;20184;-85
2021/10/10 06:41:49;;;;;;;15.23;13.83;;;6.90;62.10;;;;;;5053490;28;20426;-86
2021/10/10 06:44:15;;;;;;;14.30;12.60;;;7.00;62.10;;;;;;5052811;28;20633;-85
2021/10/10 06:46:41;;;;;;;15.63;14.00;;;7.10;61.30;;;;;;5052436;28;20426;-86
2021/10/10 06:49:06;;;;;;;15.93;14.23;;;6.90;61.10;;;;;;5052012;28;20186;-85
2021/10/10 06:51:32;;;;;;;16.77;15.00;;;6.90;62.20;;;;;;5052078;28;20180;-85
2021/10/10 06:53:58;;;;;;;15.40;13.80;;;6.80;61.60;;;;;;5052462;28;20179;-85
2021/10/10 06:56:23;;;;;;;16.43;14.90;;;6.90;62.00;;;;;;5052276;28;20214;-87
2021/10/10 06:58:50;;;;;;;14.53;13.10;;;6.90;61.50;;;;;;5052088;28;20539;-85
2021/10/10 07:01:16;;;;;;;15.63;14.17;;;6.90;62.40;;;;;;5052650;28;20190;-85
2021/10/10 07:03:42;;;;;;;15.60;14.00;;;6.90;62.90;;;;;;5052226;28;20418;-86
2021/10/10 07:06:09;;;;;;;15.47;14.00;;;7.10;62.40;;;;;;5052248;28;20244;-86
2021/10/10 07:08:34;;;;;;;15.60;14.00;;;7.10;61.60;;;;;;5052151;28;20426;-86
2021/10/10 07:11:00;;;;;;;20.23;15.40;;;7.20;61.40;;;;;;5052395;28;20568;-85
2021/10/10 07:13:26;;;;;;;16.83;15.17;;;7.30;60.70;;;;;;5051547;28;20183;-84
2021/10/10 07:15:54;;;;;;;16.43;14.73;;;7.60;61.70;;;;;;5051001;28;20204;-83
2021/10/10 07:18:38;;;;;;;16.97;15.27;;;7.70;60.60;;;;;;5050856;28;20196;-83
2021/10/10 07:21:55;;;;;;;16.70;15.20;;;7.80;60.10;;;;;;5051096;28;20421;-84
2021/10/10 07:26:19;;;;;;;14.67;13.17;;;8.10;59.40;;;;;;5052211;28;20424;-84
2021/10/10 07:28:44;;;;;;;15.73;14.23;;;8.20;57.60;;;;;;5050739;28;20425;-83
2021/10/10 07:31:10;;;;;;;15.93;14.43;;;8.20;57.70;;;;;;5050648;28;20887;-83
2021/10/10 07:33:36;;;;;;;16.30;14.57;;;8.10;57.40;;;;;;5050856;28;20193;-83
2021/10/10 07:36:02;;;;;;;16.10;14.60;;;8.20;58.70;;;;;;5050634;28;20235;-83
2021/10/10 07:38:27;;;;;;;18.40;15.60;;;8.30;58.30;;;;;;5050735;28;20268;-83
2021/10/10 07:40:53;;;;;;;16.70;15.30;;;8.30;57.90;;;;;;5050771;28;20501;-83
2021/10/10 07:43:21;;;;;;;16.63;14.90;;;8.30;58.10;;;;;;5050619;28;20179;-84
2021/10/10 07:45:47;;;;;;;19.13;15.60;;;8.30;57.90;;;;;;5050599;28;20909;-83
2021/10/10 07:48:13;;;;;;;18.37;14.87;;;8.40;57.40;;;;;;5050671;28;20418;-84
2021/10/10 07:50:41;;;;;;;17.77;15.87;;;8.50;56.30;;;;;;5050590;28;20433;-84
2021/10/10 07:53:07;;;;;;;15.37;14.07;;;8.50;56.30;;;;;;5050991;28;20754;-84
2021/10/10 07:55:33;;;;;;;16.07;14.57;;;8.40;55.80;;;;;;5050489;28;20469;-83
2021/10/10 07:57:59;;;;;;;16.87;15.27;;;8.50;57.10;;;;;;5050242;28;20421;-84
2021/10/10 08:00:25;;;;;;;17.00;15.20;;;8.60;56.20;;;;;;5052133;28;20410;-84
2021/10/10 08:02:59;;;;;;;16.83;15.13;;;8.60;56.00;;;;;;5051111;28;20176;-84
2021/10/10 08:05:27;;;;;;;16.50;14.97;;;8.60;55.90;;;;;;5051086;28;20714;-84
2021/10/10 08:07:53;;;;;;;17.13;15.33;;;8.70;55.00;;;;;;5050875;28;20419;-83
2021/10/10 08:10:20;;;;;;;15.47;13.97;;;8.80;55.20;;;;;;5050497;28;20480;-86
2021/10/10 08:12:46;;;;;;;17.80;16.00;;;8.90;54.60;;;;;;5050557;28;20902;-83
2021/10/10 08:15:12;;;;;;;16.83;15.13;;;8.90;54.60;;;;;;5050414;28;20441;-85
2021/10/10 08:17:38;;;;;;;17.20;15.60;;;9.10;53.40;;;;;;5053745;28;20176;-83
2021/10/10 08:20:05;;;;;;;17.33;14.50;;;9.10;53.10;;;;;;5054440;28;20418;-84
2021/10/10 08:22:34;;;;;;;15.87;14.37;;;9.20;52.70;;;;;;5054332;28;20172;-85
2021/10/10 08:25:00;;;;;;;17.40;15.63;;;9.20;53.70;;;;;;5054165;28;20845;-85
2021/10/10 08:27:25;;;;;;;21.17;18.07;;;9.20;51.70;;;;;;5054181;28;20421;-84
2021/10/10 08:29:51;;;;;;;19.10;17.20;;;9.20;51.70;;;;;;5054351;28;20422;-84
2021/10/10 08:32:17;;;;;;;20.03;16.47;;;9.30;52.20;;;;;;5053971;28;20235;-84
2021/10/10 08:34:42;;;;;;;16.83;15.23;;;9.30;51.80;;;;;;5054085;28;20179;-84
2021/10/10 08:37:08;;;;;;;17.60;14.20;;;9.30;51.80;;;;;;5053740;28;20208;-83
2021/10/10 08:39:34;;;;;;;17.03;15.33;;;9.30;51.30;;;;;;5053769;28;20179;-84
2021/10/10 08:42:02;;;;;;;16.83;15.17;;;9.30;51.80;;;;;;5055434;28;20410;-84
2021/10/10 08:44:33;;;;;;;20.47;14.17;;;9.30;51.80;;;;;;5054093;28;20317;-84
2021/10/10 08:47:14;;;;;;;15.87;14.20;;;9.30;51.40;;;;;;5053807;28;20509;-84
2021/10/10 08:49:40;;;;;;;18.10;16.10;;;9.30;51.30;;;;;;5053848;28;20426;-83
2021/10/10 08:52:14;;;;;;;17.23;15.63;;;9.40;51.00;;;;;;5054190;28;20750;-84
2021/10/10 08:54:41;;;;;;;16.13;14.67;;;9.40;50.70;;;;;;5055012;28;20425;-84
2021/10/10 08:57:08;;;;;;;17.93;15.93;;;9.40;51.80;;;;;;5054103;28;20550;-85
2021/10/10 08:59:38;;;;;;;15.10;13.50;;;9.40;51.80;;;;;;5055136;28;20421;-84
2021/10/10 09:02:09;;;;;;;16.17;14.47;;;9.60;50.90;;;;;;5054834;28;20452;-83
2021/10/10 09:04:39;;;;;;;17.67;15.27;;;9.60;50.50;;;;;;5054042;28;20760;-84
2021/10/10 09:07:05;;;;;;;17.57;15.37;;;9.60;49.60;;;;;;5054104;28;20530;-85
2021/10/10 09:09:33;;;;;;;18.90;16.93;;;9.60;49.00;;;;;;5055391;28;20414;-85
2021/10/10 09:12:06;;;;;;;15.67;13.97;;;9.70;50.00;;;;;;5054775;28;20484;-85
2021/10/10 09:15:06;;;;;;;16.43;14.57;;;9.80;50.00;;;;;;5055976;28;20411;-85
2021/10/10 09:17:32;;;;;;;16.63;14.90;;;9.90;49.90;;;;;;5054184;28;20769;-86
2021/10/10 09:19:59;;;;;;;15.20;13.70;;;10.00;47.90;;;;;;5054116;28;20402;-86
2021/10/10 09:22:26;;;;;;;16.20;13.80;;;10.00;46.70;;;;;;5054749;28;20498;-84
2021/10/10 09:24:56;;;;;;;18.87;16.03;;;10.00;47.20;;;;;;5055853;28;20390;-84
2021/10/10 09:27:26;;;;;;;19.30;14.43;;;10.10;47.20;;;;;;5053142;28;20800;-85
2021/10/10 09:29:53;;;;;;;17.17;15.50;;;10.10;47.30;;;;;;5054222;28;20414;-85
2021/10/10 09:32:22;;;;;;;20.30;17.00;;;10.20;47.00;;;;;;5054094;28;20439;-85
2021/10/10 09:34:50;;;;;;;17.40;15.50;;;10.30;46.80;;;;;;5054290;28;20757;-85
2021/10/10 09:39:48;;;;;;;17.23;15.70;;;10.40;44.40;;;;;;5055584;28;20403;-85
2021/10/10 09:42:41;;;;;;;20.90;16.00;;;10.30;45.40;;;;;;5054074;28;20933;-85
2021/10/10 09:45:40;;;;;;;17.40;15.47;;;10.50;46.00;;;;;;5054021;28;20407;-85
2021/10/10 09:48:06;;;;;;;15.83;14.37;;;10.60;46.40;;;;;;5053608;28;20828;-86
2021/10/10 09:50:37;;;;;;;15.87;14.23;;;10.80;46.10;;;;;;5054151;28;20442;-85
2021/10/10 09:53:07;;;;;;;16.03;14.30;;;10.90;45.40;;;;;;5053992;28;20418;-86
2021/10/10 09:55:35;;;;;;;16.07;14.57;;;11.00;44.20;;;;;;5053749;28;20486;-86
2021/10/10 09:58:01;;;;;;;15.77;14.17;;;11.10;42.60;;;;;;5053554;28;20410;-86
2021/10/10 10:00:33;;;;;;;15.27;13.70;;;11.20;43.20;;;;;;5053617;28;20900;-86
2021/10/10 10:03:08;;;;;;;15.10;13.57;;;11.20;41.90;;;;;;5054073;28;20422;-86
2021/10/10 10:05:35;;;;;;;15.60;13.87;;;11.30;41.70;;;;;;5054090;28;20428;-86
2021/10/10 10:08:00;;;;;;;14.87;13.27;;;11.40;42.40;;;;;;5054034;28;20413;-86
2021/10/10 10:10:28;;;;;;;16.13;14.73;;;11.30;41.00;;;;;;5053746;28;20414;-86
2021/10/10 10:12:56;;;;;;;15.80;13.80;;;11.50;40.80;;;;;;5053596;28;20637;-85
2021/10/10 10:15:28;;;;;;;14.40;12.77;;;11.50;41.80;;;;;;5053674;28;20461;-85
2021/10/10 10:17:55;;;;;;;15.47;13.87;;;11.50;41.90;;;;;;5053608;28;20993;-85
2021/10/10 10:20:22;;;;;;;16.80;12.27;;;11.50;41.80;;;;;;5053456;28;20425;-83
2021/10/10 10:22:54;;;;;;;15.57;12.27;;;11.50;42.30;;;;;;5053635;28;20431;-86
2021/10/10 10:25:22;;;;;;;16.90;15.33;;;11.60;42.20;;;;;;5052923;28;20422;-86
2021/10/10 10:27:49;;;;;;;15.33;13.83;;;11.60;42.20;;;;;;5053172;28;20425;-86
2021/10/10 10:30:20;;;;;;;14.80;13.23;;;11.60;42.20;;;;;;5053197;28;20458;-86
2021/10/10 10:32:46;;;;;;;15.93;14.33;;;11.60;42.00;;;;;;5053390;28;20411;-85
2021/10/10 10:35:15;;;;;;;19.03;15.60;;;11.70;42.00;;;;;;5055030;28;20490;-86
2021/10/10 10:37:43;;;;;;;13.80;11.20;;;11.70;41.30;;;;;;5053471;28;20895;-85
2021/10/10 10:40:18;;;;;;;14.30;11.13;;;11.70;41.40;;;;;;5053464;28;20467;-85
2021/10/10 10:42:51;;;;;;;16.60;12.60;;;11.70;42.50;;;;;;5053284;28;20462;-84
2021/10/10 10:45:39;;;;;;;15.87;14.20;;;11.80;43.20;;;;;;5053143;28;20569;-85
2021/10/10 10:48:27;;;;;;;14.47;12.97;;;11.80;40.70;;;;;;5052642;28;20414;-85
2021/10/10 10:51:33;;;;;;;14.17;12.30;;;11.80;40.60;;;;;;5052190;28;20414;-85
2021/10/10 10:54:37;;;;;;;14.40;11.90;;;11.70;41.20;;;;;;5052320;28;20490;-85
2021/10/10 10:57:29;;;;;;;15.00;12.67;;;11.80;41.60;;;;;;5051704;28;20472;-85
2021/10/10 11:00:11;;;;;;;15.50;13.90;;;11.90;40.90;;;;;;5052517;28;20524;-85
2021/10/10 11:02:55;;;;;;;14.03;12.53;;;12.00;40.40;;;;;;5051712;28;20421;-85
2021/10/10 11:05:52;;;;;;;14.33;12.50;;;12.00;41.00;;;;;;5051575;28;20422;-85
2021/10/10 11:08:17;;;;;;;14.87;13.40;;;12.10;40.60;;;;;;5052004;28;20419;-86
2021/10/10 11:11:15;;;;;;;13.87;11.80;;;12.10;40.10;;;;;;5051396;28;21052;-86
2021/10/10 11:13:55;;;;;;;15.17;13.67;;;12.20;40.40;;;;;;5051561;28;20226;-86
2021/10/10 11:16:33;;;;;;;14.40;11.70;;;12.20;39.40;;;;;;5051867;28;20466;-86
2021/10/10 11:19:07;;;;;;;13.67;12.23;;;12.20;39.80;;;;;;5051493;28;20866;-85
2021/10/10 11:21:36;;;;;;;14.80;12.77;;;12.40;39.40;;;;;;5052316;28;20520;-85
2021/10/10 11:24:04;;;;;;;12.57;11.27;;;12.40;38.80;;;;;;5051453;28;20415;-86
2021/10/10 11:26:34;;;;;;;13.93;12.53;;;12.40;38.80;;;;;;5051528;28;20423;-86
2021/10/10 11:29:05;;;;;;;12.97;11.67;;;12.40;38.80;;;;;;5052590;28;20472;-86
2021/10/10 11:31:33;;;;;;;13.90;11.30;;;12.30;38.60;;;;;;5052013;28;20844;-86
2021/10/10 11:33:58;;;;;;;17.00;13.40;;;12.40;38.10;;;;;;5051864;28;20454;-86
2021/10/10 11:36:39;;;;;;;12.00;10.90;;;12.20;38.50;;;;;;5052634;28;20496;-85
2021/10/10 11:39:33;;;;;;;13.27;11.77;;;12.20;39.30;;;;;;5052573;28;20180;-85
2021/10/10 11:42:10;;;;;;;14.67;12.57;;;12.20;39.90;;;;;;5049018;28;20437;-86
2021/10/10 11:44:46;;;;;;;15.80;12.50;;;12.40;37.70;;;;;;5051197;28;20429;-85
2021/10/10 11:47:23;;;;;;;11.63;10.53;;;12.50;37.60;;;;;;5051669;28;20457;-85
2021/10/10 11:50:00;;;;;;;11.70;10.70;;;12.50;37.50;;;;;;5051098;28;20529;-85
2021/10/10 11:52:39;;;;;;;14.77;13.27;;;12.50;37.20;;;;;;5050587;28;20414;-85
2021/10/10 11:57:44;;;;;;;12.20;10.60;;;12.60;37.80;;;;;;5053035;28;20407;-84
2021/10/10 12:00:12;;;;;;;13.40;12.00;;;12.70;39.00;;;;;;5051858;28;20425;-85
2021/10/10 12:02:40;;;;;;;12.10;10.80;;;12.80;37.60;;;;;;5051173;28;20410;-85
2021/10/10 12:05:11;;;;;;;14.00;10.10;;;12.80;37.50;;;;;;5050932;28;20565;-86
2021/10/10 12:07:38;;;;;;;15.30;12.43;;;12.80;37.90;;;;;;5051035;28;20415;-86
2021/10/10 12:10:06;;;;;;;12.73;11.40;;;12.80;38.40;;;;;;5051046;28;20832;-86
2021/10/10 12:12:31;;;;;;;12.97;11.67;;;12.80;38.80;;;;;;5050808;28;20419;-86
2021/10/10 12:14:58;;;;;;;13.20;10.93;;;12.80;36.60;;;;;;5050944;28;20423;-86
2021/10/10 12:17:47;;;;;;;12.33;10.23;;;12.90;34.70;;;;;;5050877;28;20294;-86
2021/10/10 12:20:15;;;;;;;15.03;10.47;;;12.80;35.90;;;;;;5050907;28;20848;-86
2021/10/10 12:23:12;;;;;;;12.93;11.60;;;12.90;37.00;;;;;;5051801;28;20502;-86
2021/10/10 12:25:43;;;;;;;10.63;9.53;;;12.90;36.10;;;;;;5049192;28;20814;-85
2021/10/10 12:28:15;;;;;;;12.23;9.70;;;12.90;36.10;;;;;;5050952;28;20418;-86
2021/10/10 12:30:42;;;;;;;13.67;10.53;;;12.90;35.70;;;;;;5050620;28;20480;-86
2021/10/10 12:33:28;;;;;;;11.73;10.53;;;12.90;34.50;;;;;;5050601;28;20783;-85
2021/10/10 12:36:08;;;;;;;10.77;9.63;;;12.90;36.40;;;;;;5050818;28;20462;-86
2021/10/10 12:38:42;;;;;;;14.23;9.20;;;12.90;34.00;;;;;;5050196;28;20418;-86
2021/10/10 12:41:20;;;;;;;14.53;8.30;;;13.00;35.00;;;;;;5050490;28;20410;-85
2021/10/10 12:43:50;;;;;;;10.80;9.17;;;13.00;35.70;;;;;;5050381;28;20410;-86
2021/10/10 12:46:16;;;;;;;8.57;7.50;;;13.00;34.20;;;;;;5050620;28;20891;-84
2021/10/10 12:48:43;;;;;;;8.60;7.70;;;13.00;35.50;;;;;;5050138;28;20468;-85
2021/10/10 12:51:16;;;;;;;12.57;9.37;;;13.10;33.20;;;;;;5050485;28;20427;-85